Time;durP1;ratioP1;P1;durP2;ratioP2;P2;SDS_P1;SDS_P2;PMS_P1;PMS_P2;Temp;Humidity;BMP_temperature;BMP_pressure;BME280_temperature;BME280_humidity;BME280_pressure;Samples;Min_cycle;Max_cycle;Signal;HPM_P1;HPM_P2
2023/12/21 00:00:55;;;;;;;0.10;0.10;;;;;;;;;;5060839;28;20103;-92
2023/12/21 00:03:23;;;;;;;0.15;0.15;;;;;;;;;;5063008;28;20107;-91
2023/12/21 00:05:51;;;;;;;0.30;0.30;;;;;;;;;;5053876;28;20046;-93
2023/12/21 00:08:21;;;;;;;0.90;0.20;;;;;;;;;;5045684;28;20073;-91
2023/12/21 00:10:52;;;;;;;0.10;0.10;;;;;;;;;;5062871;28;20053;-91
2023/12/21 00:13:20;;;;;;;0.17;0.08;;;;;;;;;;5045379;28;20048;-92
2023/12/21 00:15:48;;;;;;;0.35;0.20;;;;;;;;;;5046192;28;20486;-94
2023/12/21 00:18:15;;;;;;;0.38;0.00;;;;;;;;;;5041699;28;20061;-94
2023/12/21 00:20:42;;;;;;;0.65;0.10;;;;;;;;;;5053148;28;20045;-90
2023/12/21 00:23:09;;;;;;;0.10;0.10;;;;;;;;;;5039762;28;20459;-93
2023/12/21 00:25:39;;;;;;;0.30;0.00;;;;;;;;;;5059580;28;20053;-93
2023/12/21 00:28:07;;;;;;;0.10;0.10;;;;;;;;;;5058015;28;20474;-91
2023/12/21 00:30:34;;;;;;;1.13;0.28;;;;;;;;;;5030868;28;20068;-92
2023/12/21 00:33:01;;;;;;;0.10;0.10;;;;;;;;;;5047250;28;20048;-91
2023/12/21 00:35:29;;;;;;;0.10;0.10;;;;;;;;;;5066121;28;20079;-91
2023/12/21 00:37:56;;;;;;;0.10;0.10;;;;;;;;;;5047928;28;20057;-92
2023/12/21 00:40:23;;;;;;;0.10;0.10;;;;;;;;;;5036799;28;20108;-91
2023/12/21 00:42:51;;;;;;;0.20;0.20;;;;;;;;;;5062242;28;20049;-92
2023/12/21 00:45:18;;;;;;;0.20;0.20;;;;;;;;;;5048159;28;20045;-92
2023/12/21 00:47:46;;;;;;;0.47;0.20;;;;;;;;;;5035426;28;20069;-93
2023/12/21 00:50:13;;;;;;;0.65;0.20;;;;;;;;;;5043333;28;20049;-93
2023/12/21 00:52:41;;;;;;;0.38;0.20;;;;;;;;;;5061084;28;20128;-91
2023/12/21 00:55:08;;;;;;;0.20;0.20;;;;;;;;;;5071325;28;20119;-89
2023/12/21 00:57:36;;;;;;;1.08;0.20;;;;;;;;;;5061738;28;20475;-93
2023/12/21 01:00:03;;;;;;;0.15;0.15;;;;;;;;;;5045794;28;20484;-95
2023/12/21 01:02:36;;;;;;;0.10;0.10;;;;;;;;;;5039323;28;20053;-93
2023/12/21 01:05:04;;;;;;;0.30;0.10;;;;;;;;;;5061482;28;20064;-93
2023/12/21 01:07:31;;;;;;;0.10;0.10;;;;;;;;;;5048299;28;20103;-92
2023/12/21 01:09:59;;;;;;;0.30;0.30;;;;;;;;;;5047418;28;20076;-94
2023/12/21 01:12:31;;;;;;;0.00;0.00;;;;;;;;;;5060120;28;20076;-93
2023/12/21 01:15:00;;;;;;;0.50;0.10;;;;;;;;;;5062885;28;20105;-92
2023/12/21 01:17:28;;;;;;;0.10;0.10;;;;;;;;;;5048793;28;20167;-93
2023/12/21 01:19:55;;;;;;;0.22;0.20;;;;;;;;;;5048460;28;20140;-93
2023/12/21 01:22:23;;;;;;;0.10;0.10;;;;;;;;;;5044753;28;20056;-92
2023/12/21 01:24:50;;;;;;;0.20;0.10;;;;;;;;;;5066948;28;20047;-92
2023/12/21 01:27:17;;;;;;;0.10;0.10;;;;;;;;;;5044652;28;20060;-91
2023/12/21 01:29:58;;;;;;;0.35;0.10;;;;;;;;;;5057830;28;20050;-93
2023/12/21 01:32:25;;;;;;;0.28;0.20;;;;;;;;;;5064171;28;20072;-91
2023/12/21 01:34:53;;;;;;;0.20;0.10;;;;;;;;;;5047037;28;20109;-93
2023/12/21 01:37:20;;;;;;;1.38;0.10;;;;;;;;;;5044606;28;20049;-92
2023/12/21 01:39:48;;;;;;;1.55;0.10;;;;;;;;;;5061771;28;20057;-92
2023/12/21 01:42:18;;;;;;;0.20;0.20;;;;;;;;;;5062292;28;20125;-92
2023/12/21 01:44:45;;;;;;;0.20;0.20;;;;;;;;;;5048599;28;20079;-89
2023/12/21 01:47:13;;;;;;;1.08;0.20;;;;;;;;;;5045383;28;20052;-91
2023/12/21 01:49:40;;;;;;;0.10;0.10;;;;;;;;;;5060097;28;20049;-92
2023/12/21 01:52:08;;;;;;;0.10;0.10;;;;;;;;;;5061335;28;20053;-90
2023/12/21 01:54:36;;;;;;;0.17;0.13;;;;;;;;;;5047407;28;20553;-91
2023/12/21 01:57:04;;;;;;;0.55;0.05;;;;;;;;;;5046933;28;20485;-93
2023/12/21 01:59:31;;;;;;;0.10;0.10;;;;;;;;;;5038577;28;20050;-92
2023/12/21 02:01:58;;;;;;;0.10;0.10;;;;;;;;;;5039683;28;20053;-93
2023/12/21 02:04:25;;;;;;;0.20;0.20;;;;;;;;;;5050693;28;20049;-91
2023/12/21 02:06:53;;;;;;;0.82;0.10;;;;;;;;;;5059442;28;20080;-90
2023/12/21 02:09:20;;;;;;;0.00;0.00;;;;;;;;;;5066586;28;20045;-92
2023/12/21 02:11:47;;;;;;;0.10;0.10;;;;;;;;;;5061202;28;20041;-91
2023/12/21 02:14:15;;;;;;;0.10;0.10;;;;;;;;;;5044127;28;20530;-92
2023/12/21 02:16:45;;;;;;;0.10;0.10;;;;;;;;;;5058699;28;20052;-91
2023/12/21 02:19:13;;;;;;;0.10;0.10;;;;;;;;;;5060430;28;20053;-93
2023/12/21 02:21:42;;;;;;;0.10;0.10;;;;;;;;;;5045570;28;20118;-93
2023/12/21 02:24:13;;;;;;;0.65;0.10;;;;;;;;;;5043875;28;20056;-93
2023/12/21 02:26:40;;;;;;;0.00;0.00;;;;;;;;;;5058478;28;20098;-92
2023/12/21 02:29:07;;;;;;;0.20;0.10;;;;;;;;;;5059632;28;20512;-91
2023/12/21 02:31:35;;;;;;;0.10;0.10;;;;;;;;;;5045135;28;20460;-91
2023/12/21 02:34:03;;;;;;;0.10;0.10;;;;;;;;;;5044271;28;20141;-92
2023/12/21 02:36:30;;;;;;;0.00;0.00;;;;;;;;;;5058146;28;20099;-92
2023/12/21 02:38:57;;;;;;;0.08;0.08;;;;;;;;;;5041587;28;20563;-92
2023/12/21 02:41:25;;;;;;;0.05;0.05;;;;;;;;;;5061753;28;20119;-93
2023/12/21 02:43:52;;;;;;;0.00;0.00;;;;;;;;;;5045099;28;20111;-92
2023/12/21 02:46:19;;;;;;;0.00;0.00;;;;;;;;;;5041814;28;20485;-93
2023/12/21 02:48:47;;;;;;;0.10;0.10;;;;;;;;;;5057906;28;20053;-93
2023/12/21 02:51:15;;;;;;;0.00;0.00;;;;;;;;;;5060013;28;20049;-91
2023/12/21 02:53:42;;;;;;;0.00;0.00;;;;;;;;;;5047051;28;20084;-93
2023/12/21 02:56:09;;;;;;;0.00;0.00;;;;;;;;;;5059921;28;20482;-92
2023/12/21 02:58:37;;;;;;;0.10;0.10;;;;;;;;;;5045167;28;20056;-93
2023/12/21 03:01:04;;;;;;;0.10;0.10;;;;;;;;;;5043896;28;20053;-92
2023/12/21 03:03:32;;;;;;;0.00;0.00;;;;;;;;;;5057753;28;20053;-92
2023/12/21 03:05:59;;;;;;;0.38;0.00;;;;;;;;;;5057924;28;20061;-92
2023/12/21 03:08:26;;;;;;;0.00;0.00;;;;;;;;;;5044710;28;20566;-92
2023/12/21 03:10:53;;;;;;;0.05;0.00;;;;;;;;;;5044584;28;20414;-92
2023/12/21 03:13:20;;;;;;;0.00;0.00;;;;;;;;;;5041646;28;20103;-92
2023/12/21 03:15:48;;;;;;;0.00;0.00;;;;;;;;;;5057834;28;20509;-92
2023/12/21 03:18:15;;;;;;;0.00;0.00;;;;;;;;;;5059703;28;20073;-91
2023/12/21 03:20:42;;;;;;;0.43;0.00;;;;;;;;;;5044882;28;20048;-89
2023/12/21 03:23:09;;;;;;;0.22;0.10;;;;;;;;;;5043218;28;20040;-91
2023/12/21 03:25:37;;;;;;;0.00;0.00;;;;;;;;;;5068686;28;20114;-91
2023/12/21 03:28:06;;;;;;;0.00;0.00;;;;;;;;;;5051532;28;20119;-92
2023/12/21 03:30:33;;;;;;;0.15;0.00;;;;;;;;;;5044284;28;20049;-90
2023/12/21 03:33:01;;;;;;;0.00;0.00;;;;;;;;;;5043954;28;20101;-91
2023/12/21 03:35:28;;;;;;;0.52;0.00;;;;;;;;;;5057564;28;20057;-92
2023/12/21 03:37:55;;;;;;;0.00;0.00;;;;;;;;;;5057244;28;20053;-91
2023/12/21 03:40:22;;;;;;;0.00;0.00;;;;;;;;;;5060379;28;20383;-90
2023/12/21 03:42:52;;;;;;;0.10;0.00;;;;;;;;;;5043955;28;20057;-91
2023/12/21 03:45:20;;;;;;;0.00;0.00;;;;;;;;;;5024554;28;20050;-89
2023/12/21 03:47:50;;;;;;;0.00;0.00;;;;;;;;;;5057287;28;20072;-90
2023/12/21 03:50:18;;;;;;;0.00;0.00;;;;;;;;;;5060025;28;20049;-91
2023/12/21 03:52:45;;;;;;;0.00;0.00;;;;;;;;;;5044718;28;20110;-90
2023/12/21 03:55:16;;;;;;;0.65;0.00;;;;;;;;;;5042096;28;20475;-95
2023/12/21 03:57:43;;;;;;;0.22;0.00;;;;;;;;;;5055308;28;20139;-91
2023/12/21 04:00:10;;;;;;;0.00;0.00;;;;;;;;;;5042533;28;20110;-89
2023/12/21 04:02:38;;;;;;;1.02;0.00;;;;;;;;;;5057652;28;20048;-94
2023/12/21 04:05:05;;;;;;;0.00;0.00;;;;;;;;;;5058235;28;20534;-91
2023/12/21 04:07:32;;;;;;;0.00;0.00;;;;;;;;;;5047755;28;20071;-91
2023/12/21 04:10:00;;;;;;;0.00;0.00;;;;;;;;;;5047587;28;20060;-91
2023/12/21 04:12:28;;;;;;;0.00;0.00;;;;;;;;;;5060764;28;20050;-92
2023/12/21 04:14:55;;;;;;;0.73;0.10;;;;;;;;;;5061290;28;20394;-92
2023/12/21 04:17:22;;;;;;;2.47;0.10;;;;;;;;;;5063992;28;20456;-93
2023/12/21 04:19:49;;;;;;;0.00;0.00;;;;;;;;;;5047747;28;20052;-92
2023/12/21 04:22:17;;;;;;;0.00;0.00;;;;;;;;;;5045067;28;20053;-92
2023/12/21 04:24:44;;;;;;;0.00;0.00;;;;;;;;;;5060926;28;20053;-92
2023/12/21 04:27:12;;;;;;;0.00;0.00;;;;;;;;;;5062864;28;20052;-90
2023/12/21 04:29:39;;;;;;;0.00;0.00;;;;;;;;;;5048250;28;20382;-89
2023/12/21 04:32:07;;;;;;;0.15;0.00;;;;;;;;;;5031132;28;20065;-91
2023/12/21 04:34:35;;;;;;;0.00;0.00;;;;;;;;;;5047260;28;20127;-91
2023/12/21 04:37:02;;;;;;;0.00;0.00;;;;;;;;;;5030995;28;20058;-90
2023/12/21 04:39:29;;;;;;;0.20;0.20;;;;;;;;;;5068447;28;20072;-93
2023/12/21 04:41:56;;;;;;;0.10;0.10;;;;;;;;;;5058378;28;20272;-90
2023/12/21 04:44:23;;;;;;;0.15;0.03;;;;;;;;;;5035653;28;20414;-91
2023/12/21 04:46:51;;;;;;;0.77;0.10;;;;;;;;;;5060160;28;20049;-92
2023/12/21 04:49:20;;;;;;;0.05;0.00;;;;;;;;;;5063091;28;20085;-92
2023/12/21 04:51:47;;;;;;;0.00;0.00;;;;;;;;;;5047931;28;20140;-92
2023/12/21 04:54:14;;;;;;;0.00;0.00;;;;;;;;;;5042518;28;20485;-90
2023/12/21 04:56:42;;;;;;;0.00;0.00;;;;;;;;;;5035768;28;20107;-92
2023/12/21 04:59:10;;;;;;;0.00;0.00;;;;;;;;;;5027825;28;20050;-91
2023/12/21 05:01:37;;;;;;;0.05;0.05;;;;;;;;;;5035539;28;20052;-91
2023/12/21 05:04:04;;;;;;;0.52;0.10;;;;;;;;;;5046297;28;20095;-91
2023/12/21 05:06:32;;;;;;;0.00;0.00;;;;;;;;;;5060279;28;20053;-93
2023/12/21 05:09:03;;;;;;;0.10;0.00;;;;;;;;;;5059763;28;20061;-93
2023/12/21 05:11:30;;;;;;;0.65;0.00;;;;;;;;;;5039246;28;20054;-88
2023/12/21 05:13:58;;;;;;;0.00;0.00;;;;;;;;;;5041628;28;20065;-90
2023/12/21 05:16:25;;;;;;;0.00;0.00;;;;;;;;;;5038129;28;20220;-92
2023/12/21 05:18:52;;;;;;;0.00;0.00;;;;;;;;;;5058685;28;20141;-91
2023/12/21 05:21:20;;;;;;;0.55;0.10;;;;;;;;;;5046420;28;20068;-90
2023/12/21 05:23:47;;;;;;;0.70;0.57;;;;;;;;;;5046663;28;20114;-92
2023/12/21 05:26:15;;;;;;;0.60;0.20;;;;;;;;;;5044545;28;20128;-91
2023/12/21 05:28:42;;;;;;;0.20;0.10;;;;;;;;;;5043842;28;20490;-90
2023/12/21 05:31:11;;;;;;;0.65;0.10;;;;;;;;;;5036072;28;20461;-90
2023/12/21 05:33:39;;;;;;;0.10;0.10;;;;;;;;;;5059808;28;20552;-90
2023/12/21 05:36:07;;;;;;;0.80;0.10;;;;;;;;;;5063334;28;20048;-94
2023/12/21 05:38:34;;;;;;;0.10;0.00;;;;;;;;;;5048683;28;20103;-92
2023/12/21 05:41:02;;;;;;;0.10;0.10;;;;;;;;;;5049009;28;20049;-91
2023/12/21 05:43:29;;;;;;;0.00;0.00;;;;;;;;;;5047893;28;20053;-93
2023/12/21 05:45:57;;;;;;;0.00;0.00;;;;;;;;;;5047014;28;20421;-93
2023/12/21 05:48:24;;;;;;;0.00;0.00;;;;;;;;;;5035328;28;20065;-90
2023/12/21 05:50:52;;;;;;;0.65;0.30;;;;;;;;;;5060220;28;20042;-90
2023/12/21 05:53:19;;;;;;;0.00;0.00;;;;;;;;;;5065699;28;20555;-92
2023/12/21 05:55:46;;;;;;;0.10;0.10;;;;;;;;;;5043752;28;20037;-91
2023/12/21 05:58:14;;;;;;;0.00;0.00;;;;;;;;;;5030765;28;20152;-93
2023/12/21 06:00:41;;;;;;;0.00;0.00;;;;;;;;;;5035330;28;20544;-93
2023/12/21 06:03:08;;;;;;;0.00;0.00;;;;;;;;;;5045868;28;20053;-91
2023/12/21 06:05:35;;;;;;;0.85;0.00;;;;;;;;;;5060591;28;20088;-92
2023/12/21 06:08:03;;;;;;;0.00;0.00;;;;;;;;;;5044915;28;20041;-93
2023/12/21 06:10:30;;;;;;;0.85;0.00;;;;;;;;;;5050711;28;20490;-92
2023/12/21 06:12:57;;;;;;;0.00;0.00;;;;;;;;;;5059598;28;20049;-94
2023/12/21 06:15:24;;;;;;;0.93;0.10;;;;;;;;;;5051084;28;20057;-92
2023/12/21 06:17:52;;;;;;;0.20;0.00;;;;;;;;;;5059641;28;20057;-94
2023/12/21 06:20:19;;;;;;;0.38;0.10;;;;;;;;;;5056289;28;20053;-88
2023/12/21 06:22:46;;;;;;;0.00;0.00;;;;;;;;;;5036818;28;20048;-92
2023/12/21 06:25:14;;;;;;;0.00;0.00;;;;;;;;;;5045546;28;20512;-89
2023/12/21 06:27:42;;;;;;;0.00;0.00;;;;;;;;;;5059676;28;20136;-94
2023/12/21 06:30:09;;;;;;;0.00;0.00;;;;;;;;;;5058921;28;20551;-91
2023/12/21 06:32:36;;;;;;;0.10;0.10;;;;;;;;;;5059157;28;20057;-90
2023/12/21 06:35:04;;;;;;;0.10;0.00;;;;;;;;;;5060079;28;20049;-90
2023/12/21 06:37:32;;;;;;;0.00;0.00;;;;;;;;;;5045641;28;20135;-91
2023/12/21 06:39:59;;;;;;;0.00;0.00;;;;;;;;;;5029798;28;20146;-88
2023/12/21 06:42:26;;;;;;;0.00;0.00;;;;;;;;;;5058373;28;20049;-92
2023/12/21 06:44:53;;;;;;;0.10;0.10;;;;;;;;;;5059123;28;20076;-93
2023/12/21 06:47:22;;;;;;;0.00;0.00;;;;;;;;;;5054009;28;20073;-92
2023/12/21 06:49:49;;;;;;;0.00;0.00;;;;;;;;;;5045784;28;20512;-91
2023/12/21 06:52:17;;;;;;;0.10;0.00;;;;;;;;;;5037061;28;20055;-91
2023/12/21 06:54:44;;;;;;;2.65;0.22;;;;;;;;;;5045409;28;20048;-92
2023/12/21 06:57:11;;;;;;;0.00;0.00;;;;;;;;;;5043741;28;20056;-91
2023/12/21 06:59:38;;;;;;;0.10;0.10;;;;;;;;;;5057581;28;20049;-92
2023/12/21 07:02:06;;;;;;;0.10;0.10;;;;;;;;;;5059433;28;20069;-90
2023/12/21 07:04:33;;;;;;;0.10;0.10;;;;;;;;;;5044840;28;20053;-89
2023/12/21 07:07:00;;;;;;;0.22;0.13;;;;;;;;;;5044826;28;20511;-90
2023/12/21 07:09:27;;;;;;;0.00;0.00;;;;;;;;;;5064454;28;20116;-91
2023/12/21 07:11:55;;;;;;;0.08;0.08;;;;;;;;;;5061571;28;20076;-91
2023/12/21 07:14:22;;;;;;;0.03;0.00;;;;;;;;;;5051617;28;20050;-91
2023/12/21 07:16:50;;;;;;;0.00;0.00;;;;;;;;;;5058126;28;20056;-91
2023/12/21 07:19:18;;;;;;;0.28;0.10;;;;;;;;;;5059896;28;20061;-89
2023/12/21 07:21:45;;;;;;;0.00;0.00;;;;;;;;;;5045311;28;20059;-93
2023/12/21 07:24:13;;;;;;;1.08;0.00;;;;;;;;;;5026754;28;20049;-92
2023/12/21 07:26:40;;;;;;;0.00;0.00;;;;;;;;;;5057994;28;20502;-89
2023/12/21 07:29:07;;;;;;;0.08;0.08;;;;;;;;;;5058429;28;20053;-93
2023/12/21 07:31:34;;;;;;;1.70;0.17;;;;;;;;;;5044228;28;20521;-91
2023/12/21 07:34:02;;;;;;;0.10;0.10;;;;;;;;;;5044406;28;20061;-91
2023/12/21 07:36:29;;;;;;;0.10;0.10;;;;;;;;;;5057744;28;20124;-91
2023/12/21 07:38:57;;;;;;;0.00;0.00;;;;;;;;;;5066947;28;20286;-94
2023/12/21 07:41:25;;;;;;;0.00;0.00;;;;;;;;;;5044971;28;20045;-93
2023/12/21 07:43:52;;;;;;;0.20;0.20;;;;;;;;;;5044197;28;20049;-91
2023/12/21 07:46:21;;;;;;;0.80;0.10;;;;;;;;;;5041700;28;20057;-91
2023/12/21 07:48:49;;;;;;;0.70;0.10;;;;;;;;;;5042265;28;20057;-93
2023/12/21 07:51:16;;;;;;;0.00;0.00;;;;;;;;;;5043605;28;20552;-89
2023/12/21 07:53:43;;;;;;;0.00;0.00;;;;;;;;;;5045300;28;20060;-93
2023/12/21 07:56:10;;;;;;;0.00;0.00;;;;;;;;;;5028025;28;20049;-92
2023/12/21 07:58:38;;;;;;;0.00;0.00;;;;;;;;;;5044457;28;20048;-92
2023/12/21 08:01:05;;;;;;;1.33;0.00;;;;;;;;;;5027739;28;20050;-91
2023/12/21 08:03:33;;;;;;;0.38;0.32;;;;;;;;;;5058723;28;20417;-94
2023/12/21 08:06:00;;;;;;;0.00;0.00;;;;;;;;;;5058903;28;20525;-93
2023/12/21 08:08:27;;;;;;;0.95;0.00;;;;;;;;;;5044915;28;20072;-91
2023/12/21 08:10:55;;;;;;;0.57;0.43;;;;;;;;;;5036607;28;20057;-89
2023/12/21 08:13:22;;;;;;;4.10;0.38;;;;;;;;;;5033865;28;20487;-91
2023/12/21 08:15:49;;;;;;;0.30;0.20;;;;;;;;;;5055960;28;20053;-90
2023/12/21 08:18:17;;;;;;;0.10;0.10;;;;;;;;;;5036107;28;20061;-92
2023/12/21 08:20:47;;;;;;;0.00;0.00;;;;;;;;;;5044738;28;20075;-92
2023/12/21 08:23:15;;;;;;;0.00;0.00;;;;;;;;;;5027416;28;20042;-91
2023/12/21 08:25:42;;;;;;;0.20;0.10;;;;;;;;;;5063176;28;20064;-91
2023/12/21 08:28:09;;;;;;;0.10;0.10;;;;;;;;;;5059193;28;20046;-90
2023/12/21 08:30:37;;;;;;;0.00;0.00;;;;;;;;;;5044422;28;20497;-92
2023/12/21 08:33:04;;;;;;;0.00;0.00;;;;;;;;;;5027117;28;20049;-90
2023/12/21 08:35:31;;;;;;;0.00;0.00;;;;;;;;;;5057936;28;20065;-89
2023/12/21 08:38:00;;;;;;;0.22;0.00;;;;;;;;;;5057327;28;20065;-93
2023/12/21 08:40:27;;;;;;;0.00;0.00;;;;;;;;;;5057929;28;20052;-94
2023/12/21 08:42:55;;;;;;;0.00;0.00;;;;;;;;;;5041252;28;20063;-91
2023/12/21 08:45:25;;;;;;;0.00;0.00;;;;;;;;;;5034961;28;20560;-90
2023/12/21 08:47:54;;;;;;;0.10;0.00;;;;;;;;;;5058816;28;20103;-91
2023/12/21 08:50:21;;;;;;;0.80;0.10;;;;;;;;;;5060881;28;20499;-89
2023/12/21 08:52:49;;;;;;;0.00;0.00;;;;;;;;;;5048133;28;20045;-92
2023/12/21 08:55:16;;;;;;;0.05;0.00;;;;;;;;;;5041168;28;20494;-92
2023/12/21 08:57:44;;;;;;;2.28;0.10;;;;;;;;;;5049547;28;20045;-92
2023/12/21 09:00:13;;;;;;;0.00;0.00;;;;;;;;;;5047675;28;20095;-87
2023/12/21 09:02:41;;;;;;;0.15;0.10;;;;;;;;;;5062906;28;20046;-90
2023/12/21 09:05:12;;;;;;;0.00;0.00;;;;;;;;;;5054401;28;20107;-87
2023/12/21 09:07:40;;;;;;;0.00;0.00;;;;;;;;;;5061009;28;20088;-91
2023/12/21 09:10:08;;;;;;;0.05;0.05;;;;;;;;;;5061013;28;20053;-90
2023/12/21 09:12:36;;;;;;;0.20;0.00;;;;;;;;;;5047024;28;20045;-91
2023/12/21 09:15:04;;;;;;;0.73;0.20;;;;;;;;;;5045420;28;20045;-91
2023/12/21 09:17:31;;;;;;;0.00;0.00;;;;;;;;;;5048505;28;20052;-93
2023/12/21 09:19:58;;;;;;;0.00;0.00;;;;;;;;;;5050116;28;20049;-93
2023/12/21 09:22:26;;;;;;;0.00;0.00;;;;;;;;;;5043036;28;20045;-89
2023/12/21 09:24:55;;;;;;;0.30;0.10;;;;;;;;;;5047507;28;20132;-90
2023/12/21 09:27:23;;;;;;;0.00;0.00;;;;;;;;;;5041167;28;20045;-91
2023/12/21 09:29:51;;;;;;;0.00;0.00;;;;;;;;;;5049255;28;20052;-93
2023/12/21 09:32:19;;;;;;;0.65;0.00;;;;;;;;;;5032038;28;20046;-91
2023/12/21 09:34:50;;;;;;;0.10;0.10;;;;;;;;;;5061757;28;20053;-93
2023/12/21 09:37:17;;;;;;;0.30;0.10;;;;;;;;;;5065515;28;20113;-92
2023/12/21 09:39:46;;;;;;;0.00;0.00;;;;;;;;;;5062314;28;20049;-92
2023/12/21 09:42:14;;;;;;;0.00;0.00;;;;;;;;;;5041633;28;20084;-93
2023/12/21 09:44:43;;;;;;;0.00;0.00;;;;;;;;;;5049277;28;20140;-92
2023/12/21 09:47:13;;;;;;;0.00;0.00;;;;;;;;;;5040578;28;20057;-92
2023/12/21 09:49:41;;;;;;;0.00;0.00;;;;;;;;;;5044514;28;20077;-92
2023/12/21 09:52:08;;;;;;;0.43;0.43;;;;;;;;;;5026348;28;20073;-92
2023/12/21 09:54:36;;;;;;;0.45;0.20;;;;;;;;;;5051318;28;20493;-89
2023/12/21 09:57:05;;;;;;;1.30;0.10;;;;;;;;;;5062723;28;20049;-91
2023/12/21 09:59:34;;;;;;;0.00;0.00;;;;;;;;;;5047291;28;20105;-89
2023/12/21 10:02:11;;;;;;;0.10;0.10;;;;;;;;;;5048005;28;20053;-92
2023/12/21 10:04:45;;;;;;;0.40;0.30;;;;;;;;;;5047408;28;20045;-90
2023/12/21 10:07:13;;;;;;;0.00;0.00;;;;;;;;;;5047470;28;20052;-90
2023/12/21 10:09:40;;;;;;;0.28;0.28;;;;;;;;;;5046558;28;20052;-92
2023/12/21 10:12:13;;;;;;;1.05;1.00;;;;;;;;;;5038458;28;20045;-90
2023/12/21 10:14:40;;;;;;;1.30;1.20;;;;;;;;;;5047234;28;20559;-92
2023/12/21 10:17:10;;;;;;;2.05;1.85;;;;;;;;;;5045014;28;20148;-94
2023/12/21 10:19:38;;;;;;;0.70;0.70;;;;;;;;;;5056264;28;20140;-91
2023/12/21 10:22:05;;;;;;;1.25;0.57;;;;;;;;;;5045445;28;20052;-94
2023/12/21 10:24:33;;;;;;;1.40;0.20;;;;;;;;;;5060302;28;20132;-91
2023/12/21 10:27:03;;;;;;;0.13;0.10;;;;;;;;;;5044350;28;20468;-92
2023/12/21 10:29:30;;;;;;;0.20;0.20;;;;;;;;;;5045979;28;20049;-95
2023/12/21 10:31:58;;;;;;;0.47;0.17;;;;;;;;;;5045970;28;20052;-91
2023/12/21 10:34:25;;;;;;;0.03;0.03;;;;;;;;;;5046860;28;20053;-92
2023/12/21 10:36:53;;;;;;;0.00;0.00;;;;;;;;;;5047546;28;20045;-94
2023/12/21 10:39:22;;;;;;;0.22;0.22;;;;;;;;;;5043529;28;20086;-92
2023/12/21 10:41:50;;;;;;;0.00;0.00;;;;;;;;;;5050711;28;20057;-91
2023/12/21 10:44:18;;;;;;;0.10;0.10;;;;;;;;;;5038628;28;20045;-92
2023/12/21 10:46:45;;;;;;;0.10;0.10;;;;;;;;;;5046996;28;20456;-92
2023/12/21 10:49:13;;;;;;;0.77;0.30;;;;;;;;;;5044011;28;20408;-94
2023/12/21 10:51:43;;;;;;;1.30;0.90;;;;;;;;;;5061609;28;20061;-94
2023/12/21 10:54:14;;;;;;;1.40;1.30;;;;;;;;;;5071226;28;20417;-93
2023/12/21 10:56:45;;;;;;;0.60;0.60;;;;;;;;;;5048084;28;20076;-91
2023/12/21 10:59:19;;;;;;;0.00;0.00;;;;;;;;;;5058887;28;20053;-90
2023/12/21 11:01:47;;;;;;;0.73;0.20;;;;;;;;;;5056932;28;20053;-92
2023/12/21 11:04:17;;;;;;;0.00;0.00;;;;;;;;;;5043179;28;20037;-90
2023/12/21 11:06:46;;;;;;;0.70;0.70;;;;;;;;;;5058627;28;20078;-90
2023/12/21 11:09:18;;;;;;;0.52;0.52;;;;;;;;;;5058528;28;20473;-93
2023/12/21 11:11:46;;;;;;;0.00;0.00;;;;;;;;;;5043067;28;20054;-93
2023/12/21 11:14:14;;;;;;;2.05;0.00;;;;;;;;;;5044309;28;20053;-89
2023/12/21 11:16:44;;;;;;;2.17;0.10;;;;;;;;;;5045223;28;20048;-91
2023/12/21 11:19:12;;;;;;;0.00;0.00;;;;;;;;;;5042917;28;20063;-89
2023/12/21 11:21:45;;;;;;;0.00;0.00;;;;;;;;;;5039167;28;20064;-90
2023/12/21 11:24:22;;;;;;;0.10;0.10;;;;;;;;;;5044269;28;20107;-93
2023/12/21 11:26:50;;;;;;;0.20;0.20;;;;;;;;;;5058324;28;20053;-92
2023/12/21 11:29:28;;;;;;;1.00;0.03;;;;;;;;;;5062020;28;20103;-91
2023/12/21 11:31:56;;;;;;;0.30;0.30;;;;;;;;;;5045943;28;20056;-91
2023/12/21 11:34:34;;;;;;;0.00;0.00;;;;;;;;;;5042152;28;20049;-94
2023/12/21 11:37:17;;;;;;;1.10;0.03;;;;;;;;;;5059560;28;20053;-91
2023/12/21 11:39:45;;;;;;;0.10;0.10;;;;;;;;;;5045698;28;20055;-94
2023/12/21 11:42:12;;;;;;;0.10;0.10;;;;;;;;;;5046885;28;20049;-93
2023/12/21 11:44:40;;;;;;;0.13;0.13;;;;;;;;;;5062020;28;20059;-91
2023/12/21 11:47:08;;;;;;;0.10;0.10;;;;;;;;;;5044481;28;20049;-91
2023/12/21 11:49:37;;;;;;;0.20;0.10;;;;;;;;;;5041108;28;20042;-90
2023/12/21 11:52:05;;;;;;;0.28;0.10;;;;;;;;;;5027413;28;20456;-92
2023/12/21 11:54:32;;;;;;;0.00;0.00;;;;;;;;;;5045197;28;20057;-92
2023/12/21 11:57:12;;;;;;;0.10;0.10;;;;;;;;;;5044861;28;20053;-93
2023/12/21 11:59:39;;;;;;;0.10;0.10;;;;;;;;;;5036179;28;20133;-91
2023/12/21 12:02:10;;;;;;;0.00;0.00;;;;;;;;;;5042795;28;20107;-90
2023/12/21 12:04:37;;;;;;;0.73;0.20;;;;;;;;;;5044137;28;20049;-91
2023/12/21 12:07:05;;;;;;;0.28;0.10;;;;;;;;;;5044535;28;20106;-91
2023/12/21 12:09:32;;;;;;;0.10;0.10;;;;;;;;;;5057492;28;20049;-91
2023/12/21 12:12:00;;;;;;;0.10;0.00;;;;;;;;;;5058299;28;20540;-93
2023/12/21 12:14:27;;;;;;;0.28;0.10;;;;;;;;;;5029731;28;20076;-92
2023/12/21 12:16:54;;;;;;;0.00;0.00;;;;;;;;;;5055156;28;20029;-90
2023/12/21 12:19:26;;;;;;;0.00;0.00;;;;;;;;;;5049792;28;20053;-92
2023/12/21 12:21:54;;;;;;;0.88;0.20;;;;;;;;;;5057516;28;20057;-91
2023/12/21 12:24:22;;;;;;;0.10;0.10;;;;;;;;;;5061206;28;20052;-93
2023/12/21 12:26:49;;;;;;;0.00;0.00;;;;;;;;;;5046188;28;20063;-90
2023/12/21 12:29:17;;;;;;;0.43;0.00;;;;;;;;;;5040702;28;20136;-92
2023/12/21 12:31:45;;;;;;;0.10;0.10;;;;;;;;;;5042259;28;20049;-94
2023/12/21 12:34:12;;;;;;;0.10;0.10;;;;;;;;;;5046493;28;20100;-92
2023/12/21 12:36:40;;;;;;;0.05;0.05;;;;;;;;;;5048479;28;20076;-90
2023/12/21 12:39:11;;;;;;;0.30;0.30;;;;;;;;;;5046939;28;20095;-92
2023/12/21 12:41:38;;;;;;;0.10;0.10;;;;;;;;;;5055986;28;20058;-92
2023/12/21 12:44:05;;;;;;;0.20;0.20;;;;;;;;;;5042134;28;20045;-91
2023/12/21 12:46:33;;;;;;;0.20;0.20;;;;;;;;;;5061518;28;20172;-91
2023/12/21 12:49:00;;;;;;;0.30;0.30;;;;;;;;;;5060889;28;20057;-91
2023/12/21 12:51:27;;;;;;;0.10;0.10;;;;;;;;;;5047581;28;20055;-91
2023/12/21 12:53:55;;;;;;;0.22;0.22;;;;;;;;;;5047565;28;20110;-91
2023/12/21 12:56:22;;;;;;;0.15;0.15;;;;;;;;;;5044483;28;20064;-91
2023/12/21 12:58:49;;;;;;;0.17;0.10;;;;;;;;;;5060721;28;20049;-91
2023/12/21 13:01:26;;;;;;;0.43;0.00;;;;;;;;;;5046859;28;20081;-89
2023/12/21 13:03:56;;;;;;;0.10;0.10;;;;;;;;;;5040123;28;20057;-91
2023/12/21 13:06:23;;;;;;;0.10;0.10;;;;;;;;;;5048865;28;20045;-90
2023/12/21 13:08:51;;;;;;;0.10;0.10;;;;;;;;;;5040328;28;20055;-89
2023/12/21 13:11:18;;;;;;;0.10;0.10;;;;;;;;;;5046544;28;20049;-92
2023/12/21 13:13:46;;;;;;;0.38;0.38;;;;;;;;;;5047070;28;20048;-90
2023/12/21 13:16:18;;;;;;;1.27;0.90;;;;;;;;;;5029739;28;20056;-89
2023/12/21 13:18:48;;;;;;;2.58;2.38;;;;;;;;;;5060610;28;20065;-90
2023/12/21 13:21:15;;;;;;;15.55;8.23;;;;;;;;;;5062659;28;20494;-93
2023/12/21 13:23:43;;;;;;;13.15;9.85;;;;;;;;;;5047178;28;20052;-93
2023/12/21 13:26:12;;;;;;;1.25;1.20;;;;;;;;;;5028186;28;20075;-91
2023/12/21 13:28:42;;;;;;;6.25;5.20;;;;;;;;;;5029333;28;20132;-94
2023/12/21 13:31:10;;;;;;;4.43;3.80;;;;;;;;;;5048589;28;20109;-92
2023/12/21 13:33:37;;;;;;;0.60;0.60;;;;;;;;;;5066895;28;20100;-92
2023/12/21 13:36:05;;;;;;;2.55;2.13;;;;;;;;;;5052355;28;20052;-93
2023/12/21 13:38:32;;;;;;;1.63;0.85;;;;;;;;;;5060030;28;20045;-91
2023/12/21 13:40:59;;;;;;;0.80;0.73;;;;;;;;;;5060451;28;20049;-91
2023/12/21 13:43:26;;;;;;;1.00;1.00;;;;;;;;;;5046962;28;20056;-93
2023/12/21 13:45:54;;;;;;;1.25;0.52;;;;;;;;;;5039261;28;20115;-92
2023/12/21 13:48:21;;;;;;;0.70;0.70;;;;;;;;;;5046369;28;20045;-93
2023/12/21 13:50:49;;;;;;;0.20;0.20;;;;;;;;;;5046937;28;20080;-90
2023/12/21 13:53:16;;;;;;;0.63;0.22;;;;;;;;;;5044247;28;20045;-91
2023/12/21 13:55:44;;;;;;;0.10;0.10;;;;;;;;;;5060366;28;20057;-90
2023/12/21 13:58:11;;;;;;;0.22;0.22;;;;;;;;;;5061412;28;20051;-91
2023/12/21 14:00:38;;;;;;;1.75;0.60;;;;;;;;;;5046282;28;20163;-92
2023/12/21 14:03:06;;;;;;;1.50;0.30;;;;;;;;;;5045490;28;20417;-92
2023/12/21 14:05:33;;;;;;;1.05;0.52;;;;;;;;;;5060299;28;20520;-93
2023/12/21 14:08:00;;;;;;;0.30;0.30;;;;;;;;;;5060886;28;20049;-92
2023/12/21 14:10:28;;;;;;;0.55;0.55;;;;;;;;;;5046762;28;20052;-93
2023/12/21 14:12:55;;;;;;;1.00;0.57;;;;;;;;;;5046249;28;20055;-93
2023/12/21 14:15:25;;;;;;;1.10;0.50;;;;;;;;;;5034643;28;20072;-90
2023/12/21 14:17:52;;;;;;;0.20;0.20;;;;;;;;;;5059144;28;20572;-92
2023/12/21 14:20:22;;;;;;;0.90;0.40;;;;;;;;;;5045948;28;20056;-92
2023/12/21 14:22:50;;;;;;;0.75;0.22;;;;;;;;;;5046842;28;20055;-91
2023/12/21 14:25:17;;;;;;;0.30;0.30;;;;;;;;;;5043216;28;20135;-91
2023/12/21 14:27:45;;;;;;;0.75;0.70;;;;;;;;;;5058844;28;20452;-92
2023/12/21 14:30:13;;;;;;;5.18;0.85;;;;;;;;;;5060409;28;20058;-92
2023/12/21 14:32:40;;;;;;;0.63;0.63;;;;;;;;;;5045143;28;20489;-92
2023/12/21 14:35:07;;;;;;;0.57;0.40;;;;;;;;;;5044497;28;20056;-93
2023/12/21 14:37:35;;;;;;;0.17;0.17;;;;;;;;;;5042259;28;20516;-93
2023/12/21 14:40:06;;;;;;;0.95;0.30;;;;;;;;;;5041890;28;20417;-92
2023/12/21 14:42:33;;;;;;;0.40;0.40;;;;;;;;;;5042611;28;20057;-92
2023/12/21 14:45:01;;;;;;;0.30;0.30;;;;;;;;;;5042310;28;20057;-92
2023/12/21 14:47:29;;;;;;;0.22;0.22;;;;;;;;;;5052128;28;20049;-92